createdAt,value
2019-05-26T00:01:02.745Z,14.40
2019-05-26T00:03:10.790Z,12.93
2019-05-26T00:05:18.468Z,13.97
2019-05-26T00:07:30.665Z,15.17
2019-05-26T00:09:35.219Z,15.20
2019-05-26T00:11:42.732Z,15.67
2019-05-26T00:13:50.327Z,19.33
2019-05-26T00:15:57.864Z,15.80
2019-05-26T00:18:05.313Z,13.73
2019-05-26T00:20:14.178Z,16.00
2019-05-26T00:22:21.654Z,17.70
2019-05-26T00:24:29.203Z,16.20
2019-05-26T00:26:36.646Z,17.63
2019-05-26T00:28:44.198Z,18.37
2019-05-26T00:30:51.660Z,19.37
2019-05-26T00:32:59.230Z,15.53
2019-05-26T00:35:07.992Z,17.83
2019-05-26T00:37:15.551Z,17.07
2019-05-26T00:39:23.209Z,14.67
2019-05-26T00:41:30.802Z,16.97
2019-05-26T00:43:38.216Z,16.00
2019-05-26T00:45:45.632Z,17.13
2019-05-26T00:47:52.989Z,18.23
2019-05-26T00:50:00.606Z,19.23
2019-05-26T00:52:08.721Z,17.43
2019-05-26T00:54:16.140Z,16.10
2019-05-26T00:56:23.760Z,19.13
2019-05-26T00:58:31.233Z,17.17
2019-05-26T01:00:43.119Z,18.37
2019-05-26T01:02:50.531Z,19.33
2019-05-26T01:04:58.042Z,17.03
2019-05-26T01:07:05.455Z,15.63
2019-05-26T01:09:12.874Z,18.43
2019-05-26T01:11:20.289Z,19.17
2019-05-26T01:13:27.756Z,18.80
2019-05-26T01:15:35.128Z,14.70
2019-05-26T01:17:42.454Z,16.70
2019-05-26T01:19:49.872Z,15.73
2019-05-26T01:21:57.234Z,19.87
2019-05-26T01:24:04.761Z,20.80
2019-05-26T01:26:12.137Z,13.90
2019-05-26T01:28:19.669Z,17.37
2019-05-26T01:30:37.814Z,17.27
2019-05-26T01:32:45.183Z,17.67
2019-05-26T01:34:52.558Z,19.77
2019-05-26T01:37:00.660Z,16.20
2019-05-26T01:39:09.807Z,18.73
2019-05-26T01:41:17.246Z,14.73
2019-05-26T01:43:24.680Z,17.57
2019-05-26T01:45:32.073Z,16.40
2019-05-26T01:47:39.417Z,16.23
2019-05-26T01:49:46.863Z,16.33
2019-05-26T01:51:54.178Z,12.90
2019-05-26T01:54:01.549Z,16.07
2019-05-26T01:56:08.991Z,15.17
2019-05-26T01:58:16.374Z,16.23
2019-05-26T02:00:24.306Z,19.47
2019-05-26T02:02:31.638Z,17.23
2019-05-26T02:04:39.037Z,16.57
2019-05-26T02:06:46.512Z,14.67
2019-05-26T02:08:54.063Z,15.80
2019-05-26T02:11:01.481Z,19.33
2019-05-26T02:13:08.845Z,14.73
2019-05-26T02:15:17.830Z,15.97
2019-05-26T02:17:25.273Z,18.30
2019-05-26T02:19:32.645Z,16.90
2019-05-26T02:21:40.122Z,15.77
2019-05-26T02:23:47.497Z,17.13
2019-05-26T02:25:54.900Z,17.77
2019-05-26T02:28:02.292Z,17.17
2019-05-26T02:30:10.430Z,16.07
2019-05-26T02:32:17.765Z,19.90
2019-05-26T02:34:25.221Z,22.27
2019-05-26T02:36:32.586Z,18.70
2019-05-26T02:38:59.709Z,17.90
2019-05-26T02:40:49.134Z,16.93
2019-05-26T02:42:56.535Z,18.47
2019-05-26T02:45:04.074Z,18.20
2019-05-26T02:47:11.668Z,16.40
2019-05-26T02:49:19.015Z,15.83
2019-05-26T02:51:26.407Z,16.80
2019-05-26T02:53:33.855Z,16.23
2019-05-26T02:55:41.246Z,15.87
2019-05-26T02:57:48.804Z,18.97
2019-05-26T02:59:56.304Z,16.87
2019-05-26T03:02:04.848Z,21.30
2019-05-26T03:04:13.230Z,17.87
2019-05-26T03:06:23.451Z,19.07
2019-05-26T03:08:31.525Z,19.07
2019-05-26T03:10:41.227Z,18.77
2019-05-26T03:12:51.458Z,18.70
2019-05-26T03:15:01.202Z,17.07
2019-05-26T03:17:08.835Z,18.67
2019-05-26T03:19:19.935Z,15.97
2019-05-26T03:21:30.049Z,17.23
2019-05-26T03:23:37.865Z,18.73
2019-05-26T03:25:45.581Z,19.13
2019-05-26T03:27:53.034Z,15.50
2019-05-26T03:30:00.504Z,19.33
2019-05-26T03:32:07.896Z,17.67
2019-05-26T03:34:15.257Z,21.20
2019-05-26T03:36:22.734Z,18.13
2019-05-26T03:38:30.146Z,18.47
2019-05-26T03:40:37.814Z,19.67
2019-05-26T03:42:45.413Z,18.97
2019-05-26T03:44:52.952Z,19.70
2019-05-26T03:47:00.404Z,19.17
2019-05-26T03:49:07.759Z,15.30
2019-05-26T03:51:16.062Z,16.70
2019-05-26T03:53:23.484Z,20.93
2019-05-26T03:55:31.280Z,21.80
2019-05-26T03:57:38.745Z,19.83
2019-05-26T03:59:46.179Z,18.77
2019-05-26T04:01:57.464Z,20.73
2019-05-26T04:04:02.611Z,15.73
2019-05-26T04:06:10.426Z,14.13
2019-05-26T04:08:17.836Z,20.23
2019-05-26T04:10:25.290Z,16.67
2019-05-26T04:12:33.207Z,17.53
2019-05-26T04:14:40.772Z,16.00
2019-05-26T04:16:48.315Z,15.73
2019-05-26T04:18:55.780Z,19.83
2019-05-26T04:21:03.620Z,14.87
2019-05-26T04:23:11.033Z,14.87
2019-05-26T04:25:18.618Z,20.23
2019-05-26T04:27:26.139Z,14.83
2019-05-26T04:29:34.501Z,18.53
2019-05-26T04:31:41.865Z,14.53
2019-05-26T04:33:49.294Z,14.60
2019-05-26T04:35:56.743Z,15.17
2019-05-26T04:38:04.116Z,13.40
2019-05-26T04:40:25.881Z,15.10
2019-05-26T04:42:21.063Z,17.30
2019-05-26T04:44:28.490Z,19.83
2019-05-26T04:46:35.963Z,16.57
2019-05-26T04:48:43.388Z,17.27
2019-05-26T04:50:50.818Z,20.30
2019-05-26T04:53:06.309Z,15.23
2019-05-26T04:55:07.705Z,14.93
2019-05-26T04:57:16.153Z,17.90
2019-05-26T04:59:23.593Z,20.67
2019-05-26T05:01:31.085Z,27.67
2019-05-26T05:03:38.611Z,28.63
2019-05-26T05:05:46.275Z,21.50
2019-05-26T05:07:53.916Z,14.83
2019-05-26T05:10:01.317Z,14.03
2019-05-26T05:12:08.729Z,18.00
2019-05-26T05:14:16.177Z,18.67
2019-05-26T05:16:23.685Z,15.50
2019-05-26T05:18:31.124Z,17.33
2019-05-26T05:20:38.555Z,15.67
2019-05-26T05:22:46.010Z,12.47
2019-05-26T05:24:53.375Z,17.23
2019-05-26T05:27:00.890Z,14.03
2019-05-26T05:29:08.446Z,15.20
2019-05-26T05:31:15.885Z,13.30
2019-05-26T05:33:23.974Z,13.87
2019-05-26T05:35:31.453Z,13.07
2019-05-26T05:37:38.920Z,9.37
2019-05-26T05:39:46.530Z,10.37
2019-05-26T05:41:54.141Z,11.53
2019-05-26T05:44:01.823Z,12.47
2019-05-26T05:46:09.288Z,15.23
2019-05-26T05:48:16.828Z,10.67
2019-05-26T05:50:24.581Z,12.57
2019-05-26T05:52:32.182Z,8.87
2019-05-26T05:54:39.798Z,10.57
2019-05-26T05:56:47.326Z,9.90
2019-05-26T05:58:55.180Z,7.53
2019-05-26T06:01:03.061Z,10.43
2019-05-26T06:03:11.271Z,13.80
2019-05-26T06:05:19.236Z,11.87
2019-05-26T06:07:26.693Z,8.67
2019-05-26T06:09:34.311Z,11.80
2019-05-26T06:11:41.760Z,11.47
2019-05-26T06:13:49.434Z,10.67
2019-05-26T06:15:57.045Z,13.40
2019-05-26T06:18:04.761Z,9.70
2019-05-26T06:20:14.949Z,10.87
2019-05-26T06:22:22.776Z,11.60
2019-05-26T06:24:31.354Z,9.63
2019-05-26T06:26:39.207Z,7.77
2019-05-26T06:28:46.908Z,9.27
2019-05-26T06:30:54.688Z,7.27
2019-05-26T06:33:02.261Z,9.17
2019-05-26T06:35:11.756Z,8.77
2019-05-26T06:37:19.679Z,6.47
2019-05-26T06:39:28.197Z,9.87
2019-05-26T06:41:35.811Z,8.87
2019-05-26T06:43:43.443Z,9.80
2019-05-26T06:45:51.121Z,9.10
2019-05-26T06:47:59.005Z,11.00
2019-05-26T06:50:07.296Z,14.90
2019-05-26T06:52:14.828Z,11.80
2019-05-26T06:54:22.403Z,9.03
2019-05-26T06:56:29.891Z,8.30
2019-05-26T06:58:37.461Z,7.83
2019-05-26T07:00:44.948Z,11.03
2019-05-26T07:02:52.604Z,8.60
2019-05-26T07:05:00.160Z,11.08
2019-05-26T07:07:07.718Z,5.37
2019-05-26T07:09:15.223Z,10.10
2019-05-26T07:11:22.880Z,5.97
2019-05-26T07:13:30.357Z,7.83
2019-05-26T07:15:37.858Z,7.13
2019-05-26T07:17:45.531Z,6.83
2019-05-26T07:19:53.088Z,9.53
2019-05-26T07:22:00.790Z,4.40
2019-05-26T07:24:09.179Z,6.20
2019-05-26T07:26:16.916Z,6.33
2019-05-26T07:28:25.269Z,5.57
2019-05-26T07:30:33.218Z,5.45
2019-05-26T07:32:40.879Z,5.93
2019-05-26T07:34:48.363Z,7.00
2019-05-26T07:36:55.884Z,6.93
2019-05-26T07:39:03.756Z,5.30
2019-05-26T07:41:11.327Z,7.97
2019-05-26T07:43:18.773Z,10.90
2019-05-26T07:45:26.332Z,6.60
2019-05-26T07:47:33.792Z,5.77
2019-05-26T07:49:41.306Z,6.80
2019-05-26T07:51:48.719Z,5.93
2019-05-26T07:53:56.428Z,6.57
2019-05-26T07:56:03.885Z,5.70
2019-05-26T07:58:11.364Z,5.20
2019-05-26T08:00:20.205Z,8.97
2019-05-26T08:02:27.808Z,4.73
2019-05-26T08:04:35.351Z,5.67
2019-05-26T08:06:42.809Z,6.10
2019-05-26T08:08:50.457Z,6.43
2019-05-26T08:10:58.110Z,6.63
2019-05-26T08:13:05.679Z,7.03
2019-05-26T08:15:13.865Z,6.05
2019-05-26T08:17:21.305Z,9.20
2019-05-26T08:19:28.719Z,4.58
2019-05-26T08:21:36.373Z,6.40
2019-05-26T08:23:43.946Z,4.90
2019-05-26T08:25:51.546Z,6.70
2019-05-26T08:27:59.111Z,7.00
2019-05-26T08:30:07.108Z,7.17
2019-05-26T08:32:15.236Z,14.87
2019-05-26T08:34:23.025Z,7.53
2019-05-26T08:36:30.620Z,7.70
2019-05-26T08:38:38.327Z,5.67
2019-05-26T08:40:45.815Z,6.92
2019-05-26T08:42:54.125Z,9.58
2019-05-26T08:45:01.890Z,9.13
2019-05-26T08:47:09.611Z,5.30
2019-05-26T08:49:18.383Z,5.80
2019-05-26T08:51:26.685Z,6.58
2019-05-26T08:53:34.482Z,5.97
2019-05-26T08:55:42.208Z,9.80
2019-05-26T08:57:50.208Z,7.20
2019-05-26T08:59:58.100Z,7.13
2019-05-26T09:02:06.222Z,8.78
2019-05-26T09:04:14.915Z,12.07
2019-05-26T09:06:22.596Z,5.83
2019-05-26T09:08:30.242Z,4.80
2019-05-26T09:10:37.855Z,9.37
2019-05-26T09:12:59.687Z,5.42
2019-05-26T09:14:55.837Z,8.83
2019-05-26T09:17:03.972Z,10.40
2019-05-26T09:19:11.547Z,6.80
2019-05-26T09:21:19.069Z,5.37
2019-05-26T09:23:26.664Z,4.80
2019-05-26T09:25:34.184Z,6.10
2019-05-26T09:27:41.651Z,5.90
2019-05-26T09:29:49.257Z,4.85
2019-05-26T09:31:57.825Z,5.80
2019-05-26T09:34:05.736Z,6.40
2019-05-26T09:36:13.606Z,5.25
2019-05-26T09:38:22.031Z,5.45
2019-05-26T09:40:29.507Z,5.47
2019-05-26T09:42:37.015Z,6.12
2019-05-26T09:44:44.678Z,4.62
2019-05-26T09:46:52.621Z,4.35
2019-05-26T09:49:01.061Z,6.40
2019-05-26T09:51:08.794Z,6.40
2019-05-26T09:53:16.535Z,7.42
2019-05-26T09:55:25.560Z,7.80
2019-05-26T09:57:33.256Z,4.12
2019-05-26T09:59:40.798Z,5.83
2019-05-26T10:01:48.506Z,7.10
2019-05-26T10:03:57.108Z,10.55
2019-05-26T10:06:04.671Z,4.75
2019-05-26T10:08:12.456Z,6.15
2019-05-26T10:10:20.501Z,5.97
2019-05-26T10:12:28.002Z,6.00
2019-05-26T10:14:35.763Z,5.33
2019-05-26T10:16:43.211Z,6.30
2019-05-26T10:18:51.124Z,13.68
2019-05-26T10:20:58.566Z,14.20
2019-05-26T10:23:06.182Z,5.75
2019-05-26T10:25:13.850Z,8.80
2019-05-26T10:27:21.769Z,7.28
2019-05-26T10:29:29.341Z,7.08
2019-05-26T10:31:36.800Z,8.10
2019-05-26T10:33:44.458Z,7.90
2019-05-26T10:35:51.988Z,6.75
2019-05-26T10:37:59.579Z,6.37
2019-05-26T10:40:09.452Z,6.05
2019-05-26T10:42:16.933Z,6.83
2019-05-26T10:44:24.472Z,5.80
2019-05-26T10:46:31.964Z,6.42
2019-05-26T10:48:39.538Z,6.40
2019-05-26T10:50:47.131Z,10.15
2019-05-26T10:52:54.669Z,7.12
2019-05-26T10:55:02.261Z,8.93
2019-05-26T10:57:09.902Z,8.70
2019-05-26T10:59:17.366Z,8.48
2019-05-26T11:01:25.132Z,12.25
2019-05-26T11:03:32.613Z,7.30
2019-05-26T11:05:40.100Z,5.00
2019-05-26T11:07:47.640Z,9.25
2019-05-26T11:09:55.190Z,7.05
2019-05-26T11:12:02.806Z,5.17
2019-05-26T11:14:10.544Z,5.62
2019-05-26T11:16:18.071Z,7.25
2019-05-26T11:18:25.564Z,6.83
2019-05-26T11:20:33.093Z,6.60
2019-05-26T11:22:40.710Z,6.20
2019-05-26T11:24:48.320Z,7.72
2019-05-26T11:27:07.035Z,6.70
2019-05-26T11:29:05.327Z,15.18
2019-05-26T11:31:12.998Z,23.55
2019-05-26T11:33:20.510Z,8.90
2019-05-26T11:35:28.132Z,9.75
2019-05-26T11:37:35.707Z,8.33
2019-05-26T11:39:43.271Z,8.45
2019-05-26T11:41:54.876Z,10.80
2019-05-26T11:44:00.205Z,12.93
2019-05-26T11:46:07.683Z,7.87
2019-05-26T11:48:15.233Z,7.60
2019-05-26T11:50:22.931Z,8.30
2019-05-26T11:52:30.755Z,14.20
2019-05-26T11:54:38.350Z,6.17
2019-05-26T11:56:46.449Z,18.40
2019-05-26T11:58:54.499Z,9.68
2019-05-26T12:01:01.908Z,7.05
2019-05-26T12:03:09.426Z,10.05
2019-05-26T12:05:18.163Z,7.80
2019-05-26T12:07:25.811Z,10.98
2019-05-26T12:09:33.300Z,10.03
2019-05-26T12:11:41.072Z,9.75
2019-05-26T12:13:48.569Z,6.65
2019-05-26T12:15:56.133Z,6.62
2019-05-26T12:18:03.642Z,7.25
2019-05-26T12:20:12.201Z,9.50
2019-05-26T12:22:20.401Z,7.58
2019-05-26T12:24:28.672Z,15.10
2019-05-26T12:26:36.834Z,8.28
2019-05-26T12:28:44.466Z,7.10
2019-05-26T12:30:52.212Z,10.78
2019-05-26T12:32:59.890Z,9.18
2019-05-26T12:35:08.858Z,9.05
2019-05-26T12:37:16.686Z,11.85
2019-05-26T12:39:24.436Z,11.90
2019-05-26T12:41:34.981Z,8.35
2019-05-26T12:43:41.349Z,6.50
2019-05-26T12:45:49.934Z,13.95
2019-05-26T12:47:58.534Z,8.05
2019-05-26T12:50:07.388Z,8.08
2019-05-26T12:52:15.227Z,11.95
2019-05-26T12:54:22.958Z,10.85
2019-05-26T12:56:30.562Z,8.65
2019-05-26T12:58:38.224Z,8.05
2019-05-26T13:00:49.747Z,9.15
2019-05-26T13:02:56.129Z,5.97
2019-05-26T13:05:03.944Z,6.97
2019-05-26T13:07:11.500Z,9.98
2019-05-26T13:09:19.424Z,7.83
2019-05-26T13:11:27.285Z,14.00
2019-05-26T13:13:34.801Z,10.13
2019-05-26T13:15:42.747Z,9.10
2019-05-26T13:17:50.746Z,7.40
2019-05-26T13:19:59.300Z,7.42
2019-05-26T13:22:07.460Z,9.65
2019-05-26T13:24:18.517Z,8.15
2019-05-26T13:26:24.571Z,6.67
2019-05-26T13:28:32.358Z,5.62
2019-05-26T13:30:40.210Z,6.12
2019-05-26T13:32:48.133Z,5.65
2019-05-26T13:34:56.010Z,8.28
2019-05-26T13:37:03.692Z,16.07
2019-05-26T13:39:12.060Z,14.05
2019-05-26T13:41:19.699Z,7.87
2019-05-26T13:43:27.771Z,6.30
2019-05-26T13:45:35.276Z,9.83
2019-05-26T13:47:43.018Z,11.12
2019-05-26T13:49:50.776Z,7.80
2019-05-26T13:51:58.572Z,7.45
2019-05-26T13:54:06.344Z,9.75
2019-05-26T13:56:14.114Z,8.68
2019-05-26T13:58:22.557Z,7.33
2019-05-26T14:00:30.383Z,8.63
2019-05-26T14:02:38.177Z,7.12
2019-05-26T14:04:46.002Z,6.67
2019-05-26T14:06:53.920Z,12.37
2019-05-26T14:09:02.381Z,7.72
2019-05-26T14:11:10.094Z,9.33
2019-05-26T14:13:17.810Z,7.62
2019-05-26T14:15:37.441Z,6.47
2019-05-26T14:17:36.719Z,8.78
2019-05-26T14:19:49.054Z,7.33
2019-05-26T14:21:56.794Z,5.35
2019-05-26T14:24:05.617Z,7.87
2019-05-26T14:26:13.182Z,6.72
2019-05-26T14:28:20.797Z,5.25
2019-05-26T14:30:28.643Z,6.00
2019-05-26T14:32:36.381Z,8.53
2019-05-26T14:34:44.828Z,7.53
2019-05-26T14:36:52.822Z,8.18
2019-05-26T14:39:00.373Z,6.35
2019-05-26T14:41:08.319Z,9.05
2019-05-26T14:43:15.922Z,8.08
2019-05-26T14:45:24.712Z,5.50
2019-05-26T14:47:32.883Z,7.42
2019-05-26T14:49:40.494Z,4.97
2019-05-26T14:51:48.295Z,6.87
2019-05-26T14:53:56.932Z,3.75
2019-05-26T14:56:04.524Z,9.50
2019-05-26T14:58:15.997Z,6.70
2019-05-26T15:00:23.484Z,5.55
2019-05-26T15:02:31.306Z,9.23
2019-05-26T15:04:39.132Z,6.10
2019-05-26T15:06:49.052Z,10.10
2019-05-26T15:08:56.907Z,11.28
2019-05-26T15:11:05.117Z,8.25
2019-05-26T15:13:13.645Z,5.22
2019-05-26T15:15:22.437Z,5.67
2019-05-26T15:17:32.441Z,7.47
2019-05-26T15:19:40.255Z,8.55
2019-05-26T15:21:47.865Z,16.27
2019-05-26T15:23:56.527Z,13.85
2019-05-26T15:26:05.504Z,8.05
2019-05-26T15:28:13.305Z,5.83
2019-05-26T15:30:21.216Z,5.58
2019-05-26T15:32:29.011Z,5.95
2019-05-26T15:34:36.681Z,5.45
2019-05-26T15:36:44.285Z,10.88
2019-05-26T15:38:51.998Z,4.97
2019-05-26T15:40:59.587Z,6.47
2019-05-26T15:43:07.393Z,8.03
2019-05-26T15:45:17.590Z,7.17
2019-05-26T15:47:25.283Z,5.85
2019-05-26T15:49:33.201Z,5.17
2019-05-26T15:51:40.884Z,5.17
2019-05-26T15:53:48.813Z,9.00
2019-05-26T15:55:56.413Z,5.30
2019-05-26T15:58:04.128Z,7.90
2019-05-26T16:00:14.466Z,13.10
2019-05-26T16:02:22.233Z,5.83
2019-05-26T16:04:29.842Z,9.20
2019-05-26T16:06:37.485Z,5.10
2019-05-26T16:08:44.991Z,4.05
2019-05-26T16:10:52.524Z,4.37
2019-05-26T16:13:00.258Z,4.95
2019-05-26T16:15:09.026Z,5.65
2019-05-26T16:17:16.748Z,4.00
2019-05-26T16:19:24.404Z,7.97
2019-05-26T16:21:32.095Z,6.33
2019-05-26T16:23:41.261Z,8.53
2019-05-26T16:25:48.727Z,9.58
2019-05-26T16:27:57.394Z,8.48
2019-05-26T16:30:06.819Z,6.05
2019-05-26T16:32:18.476Z,5.83
2019-05-26T16:34:24.299Z,5.45
2019-05-26T16:36:31.976Z,7.42
2019-05-26T16:38:39.963Z,6.72
2019-05-26T16:40:47.580Z,10.60
2019-05-26T16:42:55.278Z,7.22
2019-05-26T16:45:03.243Z,7.10
2019-05-26T16:47:10.782Z,13.25
2019-05-26T16:49:19.006Z,9.10
2019-05-26T16:51:26.810Z,8.15
2019-05-26T16:53:34.538Z,3.85
2019-05-26T16:55:42.192Z,5.25
2019-05-26T16:57:51.203Z,4.10
2019-05-26T16:59:59.455Z,6.72
2019-05-26T17:02:07.684Z,8.10
2019-05-26T17:04:16.246Z,6.40
2019-05-26T17:06:24.495Z,8.30
2019-05-26T17:08:32.689Z,3.72
2019-05-26T17:10:40.680Z,6.78
2019-05-26T17:12:49.089Z,7.12
2019-05-26T17:14:57.059Z,7.15
2019-05-26T17:17:14.594Z,4.95
2019-05-26T17:19:15.642Z,7.87
2019-05-26T17:21:24.056Z,5.30
2019-05-26T17:23:32.198Z,6.20
2019-05-26T17:25:41.363Z,4.25
2019-05-26T17:27:50.048Z,3.70
2019-05-26T17:30:00.460Z,5.97
2019-05-26T17:32:10.722Z,12.80
2019-05-26T17:34:19.567Z,14.95
2019-05-26T17:36:28.755Z,14.05
2019-05-26T17:38:38.152Z,8.93
2019-05-26T17:40:47.107Z,6.03
2019-05-26T17:42:56.073Z,5.85
2019-05-26T17:45:03.891Z,6.90
2019-05-26T17:47:11.951Z,9.45
2019-05-26T17:49:19.864Z,7.17
2019-05-26T17:51:27.959Z,10.88
2019-05-26T17:53:37.051Z,9.33
2019-05-26T17:55:45.245Z,8.53
2019-05-26T17:57:52.927Z,18.67
2019-05-26T18:00:01.523Z,28.32
2019-05-26T18:02:09.928Z,26.82
2019-05-26T18:04:17.766Z,31.52
2019-05-26T18:06:25.432Z,50.03
2019-05-26T18:08:36.271Z,82.15
2019-05-26T18:10:42.761Z,81.25
2019-05-26T18:12:50.460Z,106.75
2019-05-26T18:14:58.120Z,110.12
2019-05-26T18:17:05.698Z,105.70
2019-05-26T18:19:13.305Z,118.45
2019-05-26T18:21:21.343Z,136.57
2019-05-26T18:23:29.048Z,121.90
2019-05-26T18:25:36.968Z,121.70
2019-05-26T18:27:44.759Z,91.32
2019-05-26T18:29:52.491Z,84.22
2019-05-26T18:32:01.107Z,44.93
2019-05-26T18:34:10.862Z,33.63
2019-05-26T18:36:19.145Z,25.57
2019-05-26T18:38:26.918Z,17.73
2019-05-26T18:40:35.171Z,14.55
2019-05-26T18:42:44.026Z,19.10
2019-05-26T18:44:51.757Z,18.00
2019-05-26T18:46:59.657Z,25.12
2019-05-26T18:49:09.897Z,23.77
2019-05-26T18:51:18.346Z,21.90
2019-05-26T18:53:29.502Z,22.48
2019-05-26T18:55:35.578Z,25.08
2019-05-26T18:57:43.511Z,19.85
2019-05-26T18:59:51.328Z,21.07
2019-05-26T19:01:59.265Z,19.57
2019-05-26T19:04:07.777Z,15.88
2019-05-26T19:06:15.642Z,16.30
2019-05-26T19:08:23.312Z,15.05
2019-05-26T19:10:31.143Z,14.15
2019-05-26T19:12:38.906Z,12.25
2019-05-26T19:14:50.658Z,11.80
2019-05-26T19:16:57.005Z,14.78
2019-05-26T19:19:05.615Z,10.15
2019-05-26T19:21:14.467Z,12.98
2019-05-26T19:23:22.428Z,11.08
2019-05-26T19:25:30.427Z,11.25
2019-05-26T19:27:39.645Z,13.68
2019-05-26T19:29:47.665Z,13.38
2019-05-26T19:31:55.412Z,10.23
2019-05-26T19:34:03.337Z,9.20
2019-05-26T19:36:11.034Z,7.45
2019-05-26T19:38:18.928Z,7.83
2019-05-26T19:40:26.872Z,8.33
2019-05-26T19:42:34.416Z,14.70
2019-05-26T19:44:44.405Z,9.58
2019-05-26T19:46:53.755Z,13.05
2019-05-26T19:49:01.449Z,10.53
2019-05-26T19:51:09.239Z,11.85
2019-05-26T19:53:17.953Z,9.73
2019-05-26T19:55:25.490Z,8.03
2019-05-26T19:57:33.218Z,9.00
2019-05-26T19:59:43.043Z,8.00
2019-05-26T20:01:50.997Z,10.72
2019-05-26T20:03:59.741Z,14.13
2019-05-26T20:06:08.405Z,11.95
2019-05-26T20:08:16.373Z,7.15
2019-05-26T20:10:25.006Z,16.77
2019-05-26T20:12:33.726Z,9.73
2019-05-26T20:14:41.388Z,8.58
2019-05-26T20:16:50.294Z,9.70
2019-05-26T20:18:58.116Z,8.75
2019-05-26T20:21:06.049Z,12.23
2019-05-26T20:23:14.335Z,9.35
2019-05-26T20:25:22.257Z,12.07
2019-05-26T20:27:29.840Z,8.88
2019-05-26T20:29:37.925Z,8.13
2019-05-26T20:31:46.884Z,10.53
2019-05-26T20:33:54.668Z,13.10
2019-05-26T20:36:02.377Z,11.03
2019-05-26T20:38:10.991Z,8.25
2019-05-26T20:40:19.018Z,9.23
2019-05-26T20:42:27.119Z,13.70
2019-05-26T20:44:35.217Z,8.08
2019-05-26T20:46:44.587Z,8.15
2019-05-26T20:48:53.648Z,9.45
2019-05-26T20:51:01.824Z,6.90
2019-05-26T20:53:09.722Z,11.60
2019-05-26T20:55:19.013Z,8.90
2019-05-26T20:57:26.691Z,10.63
2019-05-26T20:59:34.250Z,9.25
2019-05-26T21:01:41.861Z,8.93
2019-05-26T21:03:50.015Z,9.35
2019-05-26T21:05:57.774Z,11.43
2019-05-26T21:08:05.402Z,8.17
2019-05-26T21:10:13.729Z,11.60
2019-05-26T21:12:21.847Z,9.43
2019-05-26T21:14:29.715Z,8.15
2019-05-26T21:16:37.524Z,11.97
2019-05-26T21:18:45.253Z,10.48
2019-05-26T21:20:52.855Z,10.03
2019-05-26T21:23:01.387Z,8.60
2019-05-26T21:25:13.914Z,13.30
2019-05-26T21:27:22.509Z,11.88
2019-05-26T21:29:30.086Z,11.48
2019-05-26T21:31:37.610Z,11.28
2019-05-26T21:33:45.042Z,9.65
2019-05-26T21:35:52.806Z,12.83
2019-05-26T21:38:00.381Z,10.90
2019-05-26T21:40:08.970Z,7.30
2019-05-26T21:42:16.396Z,9.85
2019-05-26T21:44:23.897Z,8.45
2019-05-26T21:46:31.415Z,8.25
2019-05-26T21:48:38.897Z,9.37
2019-05-26T21:50:46.556Z,8.75
2019-05-26T21:52:54.234Z,6.78
2019-05-26T21:55:01.843Z,8.70
2019-05-26T21:57:09.579Z,8.30
2019-05-26T21:59:17.001Z,11.20
2019-05-26T22:01:26.240Z,7.37
2019-05-26T22:03:33.821Z,9.73
2019-05-26T22:05:41.652Z,7.13
2019-05-26T22:07:49.278Z,7.53
2019-05-26T22:09:56.839Z,8.68
2019-05-26T22:12:04.251Z,7.60
2019-05-26T22:14:11.764Z,8.13
2019-05-26T22:16:19.310Z,9.43
2019-05-26T22:18:26.819Z,8.73
2019-05-26T22:20:34.314Z,10.57
2019-05-26T22:22:41.703Z,7.87
2019-05-26T22:24:49.203Z,11.60
2019-05-26T22:26:56.745Z,12.18
2019-05-26T22:29:05.049Z,10.70
2019-05-26T22:31:12.459Z,8.33
2019-05-26T22:33:20.086Z,8.80
2019-05-26T22:35:27.631Z,8.03
2019-05-26T22:37:35.086Z,7.87
2019-05-26T22:39:42.516Z,7.83
2019-05-26T22:41:49.981Z,8.63
2019-05-26T22:43:57.405Z,7.60
2019-05-26T22:46:04.992Z,7.20
2019-05-26T22:48:12.383Z,8.50
2019-05-26T22:50:20.309Z,8.67
2019-05-26T22:52:27.876Z,8.17
2019-05-26T22:54:35.753Z,8.27
2019-05-26T22:56:43.334Z,11.93
2019-05-26T22:58:50.847Z,9.00
2019-05-26T23:00:58.405Z,6.73
2019-05-26T23:03:06.114Z,7.87
2019-05-26T23:05:14.272Z,8.00
2019-05-26T23:07:21.882Z,9.80
2019-05-26T23:09:29.243Z,10.33
2019-05-26T23:11:36.767Z,12.13
2019-05-26T23:13:44.128Z,9.13
2019-05-26T23:15:51.715Z,8.03
2019-05-26T23:17:59.157Z,10.90
2019-05-26T23:20:07.388Z,8.60
2019-05-26T23:22:14.949Z,8.10
2019-05-26T23:24:22.412Z,9.07
2019-05-26T23:26:29.878Z,8.03
2019-05-26T23:28:37.338Z,8.85
2019-05-26T23:30:44.809Z,6.93
2019-05-26T23:32:52.332Z,7.90
2019-05-26T23:34:59.702Z,8.50
2019-05-26T23:37:07.399Z,11.60
2019-05-26T23:39:14.959Z,7.22
2019-05-26T23:41:22.406Z,9.70
2019-05-26T23:43:29.812Z,7.07
2019-05-26T23:45:37.369Z,9.17
2019-05-26T23:47:44.823Z,10.00
2019-05-26T23:49:52.257Z,7.87
2019-05-26T23:51:59.704Z,11.30
2019-05-26T23:54:07.259Z,8.80
2019-05-26T23:56:14.782Z,9.93
2019-05-26T23:58:22.253Z,15.27
